Time;durP1;ratioP1;P1;durP2;ratioP2;P2;SDS_P1;SDS_P2;PMS_P1;PMS_P2;Temp;Humidity;BMP_temperature;BMP_pressure;BME280_temperature;BME280_humidity;BME280_pressure;Samples;Min_cycle;Max_cycle;Signal;HPM_P1;HPM_P2
2022/11/13 00:00:13;;;;;;;9.23;6.80;;;11.00;99.90;;;;;;4895925;29;20449;-83
2022/11/13 00:03:02;;;;;;;7.60;6.87;;;10.90;99.90;;;;;;4911091;29;20520;-83
2022/11/13 00:06:01;;;;;;;7.50;6.67;;;10.80;99.90;;;;;;4907465;29;20501;-84
2022/11/13 00:09:30;;;;;;;7.50;6.80;;;10.60;99.90;;;;;;4867608;29;20443;-84
2022/11/13 00:12:17;;;;;;;9.60;6.80;;;10.70;99.90;;;;;;4883104;29;20490;-84
2022/11/13 00:15:42;;;;;;;7.73;6.90;;;10.70;99.90;;;;;;4866282;29;20435;-82
2022/11/13 00:18:37;;;;;;;7.70;7.00;;;10.80;99.90;;;;;;4921633;29;20482;-82
2022/11/13 00:22:02;;;;;;;8.13;7.33;;;10.90;99.90;;;;;;4913305;29;21027;-82
2022/11/13 00:25:13;;;;;;;7.60;6.37;;;10.80;99.90;;;;;;4928811;29;20451;-83
2022/11/13 00:28:11;;;;;;;7.00;6.37;;;10.40;99.90;;;;;;4926958;29;20461;-83
2022/11/13 00:34:35;;;;;;;8.03;7.27;;;10.50;99.90;;;;;;4933100;29;21262;-84
2022/11/13 00:38:22;;;;;;;6.90;5.87;;;10.30;99.90;;;;;;4926551;29;20445;-84
2022/11/13 00:41:27;;;;;;;;;;;;;;;;;;;;;
2022/11/13 00:44:45;;;;;;;9.33;7.13;;;10.10;99.90;;;;;;4953355;28;20456;-85
2022/11/13 00:47:30;;;;;;;7.33;6.47;;;10.40;99.90;;;;;;4957964;28;20464;-83
2022/11/13 00:50:16;;;;;;;7.40;6.70;;;10.50;99.90;;;;;;4976912;28;20443;-85
2022/11/13 00:53:23;;;;;;;6.80;6.00;;;10.60;99.90;;;;;;4956558;28;20579;-84
2022/11/13 00:56:23;;;;;;;6.93;6.23;;;10.70;99.90;;;;;;4979904;28;20827;-85
2022/11/13 00:59:06;;;;;;;7.63;6.67;;;10.80;99.90;;;;;;4964025;28;20908;-83
2022/11/13 01:02:01;;;;;;;7.43;6.73;;;10.80;99.90;;;;;;4976758;28;20557;-83
2022/11/13 01:04:48;;;;;;;;;;;;;;;;;;;;;
2022/11/13 01:07:57;;;;;;;7.30;6.50;;;10.60;99.90;;;;;;4961708;28;20439;-84
2022/11/13 01:14:06;;;;;;;7.60;6.80;;;10.60;99.90;;;;;;4973502;28;21287;-84
2022/11/13 01:16:41;;;;;;;7.33;6.63;;;10.50;99.90;;;;;;4980966;28;20451;-84
2022/11/13 01:19:22;;;;;;;8.00;7.03;;;10.50;99.90;;;;;;4967948;28;20465;-84
2022/11/13 01:21:58;;;;;;;7.10;6.40;;;10.40;99.90;;;;;;4965260;28;20513;-85
2022/11/13 01:24:47;;;;;;;7.93;7.13;;;10.60;99.90;;;;;;4974338;28;20454;-84
2022/11/13 01:27:53;;;;;;;7.60;6.43;;;10.70;99.90;;;;;;4982924;28;20458;-83
2022/11/13 01:30:56;;;;;;;7.50;6.53;;;10.60;99.90;;;;;;4961830;28;20491;-84
2022/11/13 01:33:34;;;;;;;6.87;6.20;;;10.50;99.90;;;;;;4956910;28;20546;-84
2022/11/13 01:36:34;;;;;;;7.90;7.10;;;10.30;99.90;;;;;;4973289;28;20470;-84
2022/11/13 01:39:37;;;;;;;8.97;7.00;;;10.20;99.90;;;;;;4989932;28;20458;-84
2022/11/13 01:42:19;;;;;;;7.10;6.20;;;10.40;99.90;;;;;;4980395;28;20486;-83
2022/11/13 01:45:44;;;;;;;8.53;6.83;;;10.30;99.90;;;;;;4994212;28;20473;-82
2022/11/13 01:48:49;;;;;;;6.90;6.30;;;10.30;99.90;;;;;;4981951;28;20445;-83
2022/11/13 01:51:59;;;;;;;6.83;6.13;;;10.30;99.90;;;;;;4984187;28;20458;-83
2022/11/13 01:55:29;;;;;;;;;;;;;;;;;;;;;
2022/11/13 01:58:33;;;;;;;7.90;7.10;;;10.40;99.90;;;;;;4997181;28;20534;-83
2022/11/13 02:04:58;;;;;;;8.40;7.40;;;10.20;99.90;;;;;;4998288;28;20457;-84
2022/11/13 02:11:24;;;;;;;7.97;6.83;;;10.10;99.90;;;;;;4970559;29;20468;-82
2022/11/13 02:13:57;;;;;;;6.47;5.87;;;10.10;99.90;;;;;;5055344;23;20501;-84
2022/11/13 02:16:53;;;;;;;7.57;6.77;;;10.20;99.90;;;;;;4971208;28;20471;-84
2022/11/13 02:19:45;;;;;;;8.43;7.53;;;10.10;99.90;;;;;;4913598;29;20460;-84
2022/11/13 02:23:05;;;;;;;8.37;6.73;;;10.10;99.90;;;;;;4890923;29;20491;-84
2022/11/13 02:25:50;;;;;;;8.70;7.27;;;10.00;99.90;;;;;;4892606;29;20506;-82
2022/11/13 02:28:49;;;;;;;7.30;6.43;;;9.90;99.90;;;;;;4903742;29;20489;-84
2022/11/13 02:32:07;;;;;;;7.20;6.40;;;9.90;99.90;;;;;;4898123;29;20983;-83
2022/11/13 02:35:08;;;;;;;7.77;6.27;;;9.90;99.90;;;;;;4922168;29;20461;-84
2022/11/13 02:38:06;;;;;;;8.80;7.10;;;9.80;99.90;;;;;;4906531;29;20457;-84
2022/11/13 02:41:15;;;;;;;7.50;6.80;;;9.80;99.90;;;;;;4922430;29;20485;-82
2022/11/13 02:44:10;;;;;;;7.27;6.57;;;9.70;99.90;;;;;;4908341;29;21062;-83
2022/11/13 02:46:57;;;;;;;9.10;7.83;;;9.70;99.90;;;;;;4922447;29;20456;-83
2022/11/13 02:49:47;;;;;;;8.73;7.83;;;9.70;99.90;;;;;;4934344;28;20456;-84
2022/11/13 02:52:41;;;;;;;8.90;6.80;;;9.70;99.90;;;;;;4938603;29;20470;-83
2022/11/13 02:55:56;;;;;;;8.57;7.30;;;9.50;99.90;;;;;;4942441;29;20431;-83
2022/11/13 02:58:56;;;;;;;7.40;6.70;;;9.50;99.90;;;;;;4979323;28;20475;-82
2022/11/13 03:01:50;;;;;;;;;;;;;;;;;;;;;
2022/11/13 03:04:30;;;;;;;8.40;7.03;;;9.60;99.90;;;;;;5107896;23;20593;-82
2022/11/13 03:07:34;;;;;;;8.83;7.93;;;9.60;99.90;;;;;;4963999;28;20526;-82
2022/11/13 03:10:36;;;;;;;7.73;6.93;;;9.60;99.90;;;;;;4970489;28;20447;-84
2022/11/13 03:18:48;;;;;;;8.53;7.70;;;9.70;99.90;;;;;;4057221;23;20629;-83
2022/11/13 03:21:55;;;;;;;7.60;6.80;;;9.60;99.90;;;;;;4981517;28;20541;-84
2022/11/13 03:24:46;;;;;;;8.53;7.60;;;9.70;99.90;;;;;;4964221;28;20466;-84
2022/11/13 03:27:32;;;;;;;7.83;7.03;;;9.80;99.90;;;;;;4969252;28;20464;-83
2022/11/13 03:30:39;;;;;;;8.00;7.20;;;9.80;99.90;;;;;;4968376;28;20460;-82
2022/11/13 03:33:26;;;;;;;8.80;7.50;;;9.70;99.90;;;;;;4974423;28;20471;-82
2022/11/13 03:36:09;;;;;;;8.20;7.40;;;9.70;99.90;;;;;;4957174;28;20475;-82
2022/11/13 03:39:02;;;;;;;9.33;8.43;;;9.60;99.90;;;;;;4963704;28;20452;-82
2022/11/13 03:42:11;;;;;;;8.73;7.27;;;9.60;99.90;;;;;;4960850;28;20982;-80
2022/11/13 03:44:51;;;;;;;7.83;7.03;;;9.70;99.90;;;;;;4971433;28;21046;-85
2022/11/13 03:47:43;;;;;;;7.60;6.90;;;9.60;99.90;;;;;;4974627;28;20478;-83
2022/11/13 03:50:21;;;;;;;7.53;6.77;;;9.60;99.90;;;;;;4959982;28;20509;-85
2022/11/13 03:53:30;;;;;;;8.30;7.40;;;9.70;99.90;;;;;;4958771;28;20488;-84
2022/11/13 03:56:18;;;;;;;7.90;6.27;;;9.70;99.90;;;;;;4972921;28;20470;-84
2022/11/13 04:05:49;;;;;;;7.40;6.30;;;9.60;99.90;;;;;;4945247;28;20436;-84
2022/11/13 04:09:04;;;;;;;;;;;;;;;;;;;;;
2022/11/13 04:22:20;;;;;;;7.67;6.30;;;9.80;99.90;;;;;;4877681;29;20572;-84
2022/11/13 04:25:02;;;;;;;8.33;5.90;;;9.70;99.90;;;;;;4893009;29;20500;-84
2022/11/13 04:28:04;;;;;;;7.27;5.60;;;9.60;99.90;;;;;;4891989;29;20839;-84
2022/11/13 04:31:00;;;;;;;7.80;5.60;;;9.50;99.90;;;;;;4911976;29;20462;-83
2022/11/13 04:34:15;;;;;;;5.70;5.23;;;9.60;99.90;;;;;;4881318;29;20468;-82
2022/11/13 04:37:19;;;;;;;4.97;4.47;;;9.70;99.90;;;;;;4886704;29;20528;-85
2022/11/13 04:40:16;;;;;;;6.63;5.10;;;9.80;99.90;;;;;;4903051;29;20466;-84
2022/11/13 04:46:20;;;;;;;6.30;5.70;;;9.70;99.90;;;;;;4899506;29;20443;-84
2022/11/13 04:49:17;;;;;;;6.37;5.70;;;9.50;99.90;;;;;;4895449;29;20494;-84
2022/11/13 04:52:23;;;;;;;6.33;5.53;;;9.50;99.90;;;;;;4877408;29;20455;-83
2022/11/13 04:55:23;;;;;;;;;;;;;;;;;;;;;
2022/11/13 05:01:43;;;;;;;;;;;;;;;;;;;;;
2022/11/13 05:08:19;;;;;;;6.33;5.67;;;9.30;99.90;;;;;;4964428;29;20492;-83
2022/11/13 05:11:10;;;;;;;6.37;5.87;;;9.30;99.90;;;;;;4951575;29;20494;-82
2022/11/13 05:14:00;;;;;;;6.03;5.53;;;9.20;99.90;;;;;;4952263;29;20471;-83
2022/11/13 05:23:02;;;;;;;6.10;5.50;;;9.10;99.90;;;;;;4958117;29;20487;-84
2022/11/13 05:33:29;;;;;;;6.67;5.97;;;9.10;99.90;;;;;;4927039;28;20452;-84
2022/11/13 05:36:38;;;;;;;6.90;6.00;;;9.10;99.90;;;;;;4947196;28;20474;-85
2022/11/13 05:39:49;;;;;;;6.30;5.67;;;9.10;99.90;;;;;;4956260;28;20444;-81
2022/11/13 05:42:55;;;;;;;5.97;5.40;;;9.00;99.90;;;;;;4983681;28;20493;-83
2022/11/13 05:46:13;;;;;;;;;;;;;;;;;;;;;
2022/11/13 05:49:24;;;;;;;5.80;4.80;;;8.90;99.90;;;;;;4946562;29;20524;-84
2022/11/13 05:59:15;;;;;;;5.33;4.93;;;9.20;99.90;;;;;;4883758;29;20454;-83
2022/11/13 06:02:14;;;;;;;5.20;4.53;;;9.30;99.90;;;;;;4893881;29;20574;-84
2022/11/13 06:05:37;;;;;;;5.90;5.30;;;9.20;99.90;;;;;;4873079;29;20665;-85
2022/11/13 06:09:13;;;;;;;5.10;4.60;;;9.10;99.90;;;;;;4873351;29;20503;-83
2022/11/13 06:12:44;;;;;;;6.67;6.07;;;8.90;99.90;;;;;;4888189;29;20525;-83
2022/11/13 06:15:49;;;;;;;5.07;4.57;;;9.10;99.90;;;;;;4848433;29;20460;-85
2022/11/13 06:18:57;;;;;;;4.83;4.43;;;9.00;99.90;;;;;;4828277;29;20473;-85
2022/11/13 06:21:52;;;;;;;5.63;4.63;;;9.00;99.90;;;;;;4812247;29;20506;-84
2022/11/13 06:25:02;;;;;;;5.17;4.67;;;9.00;99.90;;;;;;4855764;29;20883;-85
2022/11/13 06:28:08;;;;;;;5.57;5.07;;;9.20;99.90;;;;;;4849716;29;20469;-83
2022/11/13 06:31:23;;;;;;;;;;;;;;;;;;;;;
2022/11/13 06:34:12;;;;;;;5.50;4.90;;;9.20;99.90;;;;;;4990782;23;20545;-83
2022/11/13 06:37:49;;;;;;;5.90;5.33;;;9.40;99.90;;;;;;4957697;28;20447;-84
2022/11/13 06:40:25;;;;;;;5.00;4.50;;;9.30;99.90;;;;;;4972404;28;20451;-84
2022/11/13 06:43:22;;;;;;;5.90;5.30;;;9.20;99.90;;;;;;4980119;28;20642;-83
2022/11/13 06:46:47;;;;;;;5.77;4.90;;;9.20;99.90;;;;;;4992289;28;20446;-83
2022/11/13 06:49:53;;;;;;;5.47;5.07;;;8.90;99.90;;;;;;4984143;28;20477;-85
2022/11/13 06:55:42;;;;;;;4.43;4.03;;;9.00;99.90;;;;;;3045433;23;20538;-84
2022/11/13 06:59:09;;;;;;;5.47;4.87;;;9.00;99.90;;;;;;4980884;28;20460;-85
2022/11/13 07:04:59;;;;;;;5.10;4.13;;;8.90;99.90;;;;;;5047224;23;20471;-85
2022/11/13 07:08:16;;;;;;;4.43;4.07;;;9.10;99.60;;;;;;4963880;28;20455;-85
2022/11/13 07:11:00;;;;;;;5.00;4.53;;;9.20;99.10;;;;;;4969720;28;20917;-83
2022/11/13 07:14:44;;;;;;;4.47;4.07;;;9.20;98.90;;;;;;4900249;29;20526;-85
2022/11/13 07:17:58;;;;;;;4.93;4.50;;;9.10;98.90;;;;;;4920651;29;20453;-84
2022/11/13 07:20:56;;;;;;;4.60;4.20;;;9.20;98.90;;;;;;4864907;29;20460;-84
2022/11/13 07:23:43;;;;;;;4.93;4.50;;;9.20;98.50;;;;;;4865914;29;20857;-84
2022/11/13 07:34:11;;;;;;;3.40;3.10;;;9.10;98.60;;;;;;4863949;29;20492;-84
2022/11/13 07:37:07;;;;;;;4.90;4.03;;;9.20;97.40;;;;;;4842033;29;20483;-84
2022/11/13 07:40:12;;;;;;;3.73;3.43;;;9.30;97.20;;;;;;4849569;29;20805;-83
2022/11/13 07:46:28;;;;;;;6.53;3.33;;;9.40;96.90;;;;;;4838194;29;20442;-84
2022/11/13 07:50:10;;;;;;;4.17;3.77;;;9.50;97.00;;;;;;4831121;29;20469;-84
2022/11/13 07:53:22;;;;;;;4.00;3.40;;;9.50;97.20;;;;;;4950796;23;20495;-84
2022/11/13 07:56:38;;;;;;;4.50;3.93;;;9.40;97.20;;;;;;4982561;28;20443;-84
2022/11/13 08:00:16;;;;;;;4.00;3.70;;;9.50;97.70;;;;;;4984063;28;20418;-83
2022/11/13 08:03:17;;;;;;;4.43;3.80;;;9.50;97.70;;;;;;4928190;28;20488;-83
2022/11/13 08:06:29;;;;;;;4.67;4.27;;;9.80;97.80;;;;;;4945713;28;20448;-84
2022/11/13 08:09:47;;;;;;;;;;;;;;;;;;;;;
2022/11/13 08:19:00;;;;;;;3.87;3.53;;;10.20;96.60;;;;;;5049187;23;20472;-82
2022/11/13 08:24:53;;;;;;;4.17;3.80;;;10.30;95.20;;;;;;4973631;28;20585;-83
2022/11/13 08:28:12;;;;;;;4.40;4.00;;;10.00;95.30;;;;;;4949130;29;20476;-83
2022/11/13 08:31:12;;;;;;;5.10;3.97;;;10.30;95.50;;;;;;4953936;29;20534;-83
2022/11/13 08:34:39;;;;;;;3.70;3.40;;;10.40;95.40;;;;;;4939082;29;20431;-84
2022/11/13 08:37:25;;;;;;;4.67;4.27;;;10.40;95.40;;;;;;4928942;29;20513;-84
2022/11/13 08:40:29;;;;;;;4.60;4.20;;;10.40;95.30;;;;;;4932820;29;20462;-84
2022/11/13 08:43:58;;;;;;;4.67;3.90;;;10.40;95.40;;;;;;4882136;29;20501;-85
2022/11/13 08:47:15;;;;;;;3.40;3.10;;;10.50;95.30;;;;;;4923486;29;20459;-84
2022/11/13 08:50:16;;;;;;;3.70;3.40;;;10.30;95.20;;;;;;4919422;29;20448;-84
2022/11/13 08:53:43;;;;;;;3.30;3.00;;;10.30;94.90;;;;;;4923011;29;20984;-84
2022/11/13 08:57:07;;;;;;;3.70;3.40;;;10.10;94.60;;;;;;4946083;29;20469;-82
2022/11/13 09:00:06;;;;;;;4.00;3.63;;;10.40;94.70;;;;;;4909433;29;20483;-83
2022/11/13 09:03:29;;;;;;;3.63;3.33;;;10.70;93.90;;;;;;4927531;29;20504;-84
2022/11/13 09:06:51;;;;;;;4.10;3.80;;;10.90;93.10;;;;;;4938617;29;20992;-84
2022/11/13 09:10:22;;;;;;;3.70;3.40;;;10.90;92.80;;;;;;4861472;29;20917;-82
2022/11/13 09:14:04;;;;;;;4.40;3.53;;;10.90;92.80;;;;;;4886512;29;20497;-84
2022/11/13 09:16:46;;;;;;;4.40;4.00;;;11.10;93.10;;;;;;4911378;29;20548;-83
2022/11/13 09:19:45;;;;;;;3.90;3.60;;;10.90;93.10;;;;;;4896460;29;20466;-83
2022/11/13 09:22:59;;;;;;;3.47;3.17;;;11.10;92.80;;;;;;4856045;29;20509;-83
2022/11/13 09:33:49;;;;;;;3.40;3.10;;;14.40;82.50;;;;;;4742784;30;20578;-83
2022/11/13 09:37:31;;;;;;;;;;;;;;;;;;;;;
2022/11/13 09:41:02;;;;;;;;;;;;;;;;;;;;;
2022/11/13 09:47:50;;;;;;;;;;;;;;;;;;;;;
2022/11/13 09:55:14;;;;;;;3.30;3.10;;;17.30;63.00;;;;;;4808899;29;20452;-84
2022/11/13 09:59:23;;;;;;;4.57;3.43;;;15.70;65.80;;;;;;4836469;29;20453;-85
2022/11/13 10:02:52;;;;;;;;;;;;;;;;;;;;;
2022/11/13 10:17:49;;;;;;;3.47;3.17;;;13.80;77.10;;;;;;4942107;29;20500;-85
2022/11/13 10:21:20;;;;;;;3.60;3.33;;;13.70;76.60;;;;;;4865572;29;20506;-84
2022/11/13 10:25:14;;;;;;;2.77;2.57;;;13.80;76.90;;;;;;4872027;29;20479;-84
2022/11/13 10:32:40;;;;;;;2.37;2.03;;;13.40;76.80;;;;;;4864102;29;20437;-85
2022/11/13 10:36:28;;;;;;;2.97;2.77;;;13.40;78.30;;;;;;4857794;29;20782;-85
2022/11/13 10:43:45;;;;;;;;;;;;;;;;;;;;;
2022/11/13 10:47:46;;;;;;;2.97;2.23;;;14.10;73.00;;;;;;4878347;29;20438;-85
2022/11/13 10:51:23;;;;;;;4.40;3.43;;;14.30;73.20;;;;;;4824742;29;20494;-85
2022/11/13 10:55:12;;;;;;;;;;;;;;;;;;;;;
2022/11/13 10:58:31;;;;;;;2.20;2.00;;;14.70;69.80;;;;;;4933942;28;20632;-82
2022/11/13 11:01:53;;;;;;;2.60;2.27;;;14.80;68.60;;;;;;4902158;29;20450;-83
2022/11/13 11:13:33;;;;;;;2.30;2.10;;;15.10;66.20;;;;;;4876245;29;20451;-84
2022/11/13 11:20:44;;;;;;;2.80;2.20;;;15.10;66.10;;;;;;4872994;29;20431;-82
2022/11/13 11:27:33;;;;;;;2.37;2.17;;;15.00;64.70;;;;;;4892418;29;20507;-84
2022/11/13 11:34:55;;;;;;;2.20;2.10;;;15.10;64.70;;;;;;4849499;29;20480;-84
2022/11/13 11:52:46;;;;;;;2.57;2.37;;;15.70;64.80;;;;;;4975662;28;20508;-85
2022/11/13 12:03:46;;;;;;;3.47;2.60;;;15.90;63.90;;;;;;4901950;29;20510;-85
2022/11/13 12:07:11;;;;;;;2.37;2.17;;;15.90;63.30;;;;;;4964662;28;20936;-84
2022/11/13 12:10:48;;;;;;;;;;;;;;;;;;;;;
2022/11/13 12:14:54;;;;;;;2.53;1.90;;;15.80;62.00;;;;;;5311375;23;20491;-83
2022/11/13 12:25:23;;;;;;;;;;;;;;;;;;;;;
2022/11/13 12:29:09;;;;;;;;;;;;;;;;;;;;;
2022/11/13 12:38:16;;;;;;;3.07;2.20;;;16.10;59.00;;;;;;1680621;23;20774;-83
2022/11/13 12:45:05;;;;;;;2.80;2.13;;;16.20;58.70;;;;;;5054052;23;20502;-84
2022/11/13 12:48:23;;;;;;;2.50;2.30;;;16.30;58.20;;;;;;4962831;28;20467;-83
2022/11/13 12:51:24;;;;;;;2.40;2.00;;;16.30;57.70;;;;;;4966493;28;20448;-84
2022/11/13 12:54:41;;;;;;;2.53;2.07;;;16.50;57.00;;;;;;5228778;23;20555;-84
2022/11/13 12:57:53;;;;;;;2.33;2.17;;;16.60;57.10;;;;;;4981095;28;20477;-83
2022/11/13 13:30:08;;;;;;;;;;;;;;;;;;;;;
2022/11/13 13:33:50;;;;;;;2.30;2.10;;;16.80;57.20;;;;;;4898133;29;20470;-85
2022/11/13 13:44:25;;;;;;;1.63;1.53;;;16.60;57.50;;;;;;5317796;23;20514;-84
2022/11/13 13:52:22;;;;;;;2.13;1.93;;;17.00;56.40;;;;;;4879391;29;20542;-83
2022/11/13 13:55:39;;;;;;;2.03;1.93;;;16.90;56.70;;;;;;4882275;29;20459;-84
2022/11/13 13:59:15;;;;;;;2.10;1.83;;;16.80;55.70;;;;;;4949499;29;21013;-83
2022/11/13 14:02:42;;;;;;;2.60;2.27;;;16.70;56.20;;;;;;4938892;29;20463;-83
2022/11/13 14:06:06;;;;;;;2.33;2.13;;;16.90;55.60;;;;;;4957159;29;20964;-84
2022/11/13 14:09:46;;;;;;;2.60;2.40;;;16.80;56.30;;;;;;4955356;29;20528;-82
2022/11/13 14:24:06;;;;;;;3.00;2.57;;;16.50;57.20;;;;;;4958824;28;20515;-84
2022/11/13 14:28:09;;;;;;;2.50;2.20;;;16.10;59.10;;;;;;4950976;29;20520;-84
2022/11/13 14:31:21;;;;;;;2.37;2.07;;;16.00;59.40;;;;;;4879483;29;20446;-85
2022/11/13 14:34:21;;;;;;;2.80;2.60;;;15.70;60.20;;;;;;4939022;29;20705;-83
2022/11/13 14:37:50;;;;;;;2.77;2.57;;;15.50;60.80;;;;;;4937121;29;20479;-84
2022/11/13 14:40:57;;;;;;;5.63;2.60;;;15.40;61.40;;;;;;4960262;29;20420;-83
2022/11/13 14:45:08;;;;;;;2.97;2.37;;;15.30;62.00;;;;;;4901532;29;20507;-83
2022/11/13 14:48:46;;;;;;;3.10;2.80;;;15.20;63.50;;;;;;4844704;29;20545;-82
2022/11/13 14:55:56;;;;;;;4.50;3.03;;;15.00;66.00;;;;;;4946111;29;20546;-84
2022/11/13 14:59:28;;;;;;;4.97;4.47;;;14.90;67.10;;;;;;4932309;29;20442;-84
2022/11/13 15:05:06;;;;;;;5.20;4.70;;;14.80;67.60;;;;;;3163317;26;20479;-83
2022/11/13 15:11:35;;;;;;;5.07;4.57;;;14.70;68.70;;;;;;4979809;28;20435;-83
2022/11/13 15:14:51;;;;;;;6.03;4.93;;;14.70;69.90;;;;;;4887741;29;20508;-83
2022/11/13 15:18:25;;;;;;;;;;;;;;;;;;;;;
2022/11/13 15:25:34;;;;;;;;;;;;;;;;;;;;;
2022/11/13 15:33:06;;;;;;;;;;;;;;;;;;;;;
2022/11/13 15:36:44;;;;;;;7.50;6.60;;;14.30;75.40;;;;;;4777450;29;20448;-84
2022/11/13 15:44:07;;;;;;;6.57;5.50;;;14.10;77.10;;;;;;4762403;29;20504;-84
2022/11/13 15:47:24;;;;;;;5.80;4.50;;;14.10;78.20;;;;;;4795472;29;20451;-85
2022/11/13 15:54:09;;;;;;;6.47;4.97;;;14.00;79.30;;;;;;4827489;29;20490;-83
2022/11/13 15:57:43;;;;;;;7.37;4.70;;;14.00;79.80;;;;;;4815276;29;20513;-83
2022/11/13 16:00:59;;;;;;;6.70;5.30;;;13.90;80.30;;;;;;4847603;29;20448;-82
2022/11/13 16:04:01;;;;;;;5.50;4.73;;;13.90;80.80;;;;;;4857097;29;20481;-85
2022/11/13 16:07:15;;;;;;;6.33;5.40;;;13.80;81.10;;;;;;4862642;29;20457;-84
2022/11/13 16:09:58;;;;;;;4.83;4.10;;;13.70;82.10;;;;;;4887838;29;20451;-84
2022/11/13 16:18:40;;;;;;;11.33;8.43;;;13.60;83.40;;;;;;5086189;23;20509;-82
2022/11/13 16:21:31;;;;;;;12.10;7.10;;;13.70;84.30;;;;;;5001876;28;20423;-84
2022/11/13 16:24:27;;;;;;;9.70;7.93;;;13.60;84.80;;;;;;4984895;28;20490;-84
2022/11/13 16:27:29;;;;;;;7.90;6.60;;;13.50;85.40;;;;;;4999178;28;20470;-83
2022/11/13 16:30:30;;;;;;;12.40;8.90;;;13.50;85.60;;;;;;5188674;23;20549;-83
2022/11/13 16:35:55;;;;;;;8.80;6.60;;;13.40;86.70;;;;;;4983318;28;20832;-84
2022/11/13 16:39:15;;;;;;;8.80;6.40;;;13.40;87.20;;;;;;4969613;28;20474;-84
2022/11/13 16:42:24;;;;;;;10.40;5.77;;;13.30;87.50;;;;;;4969036;28;20459;-85
2022/11/13 16:48:42;;;;;;;8.20;6.27;;;13.30;88.50;;;;;;4965396;28;20526;-84
2022/11/13 16:51:57;;;;;;;8.83;6.87;;;13.30;88.60;;;;;;4936202;28;20443;-84
2022/11/13 16:55:01;;;;;;;8.40;7.23;;;13.20;89.20;;;;;;4958000;28;20460;-84
2022/11/13 16:57:58;;;;;;;9.23;8.20;;;13.10;89.50;;;;;;4967187;28;20436;-85
2022/11/13 17:01:21;;;;;;;8.50;6.20;;;13.10;90.00;;;;;;4964609;28;20458;-85
2022/11/13 17:04:07;;;;;;;10.93;7.77;;;13.00;90.10;;;;;;4999451;28;20482;-85
2022/11/13 17:07:08;;;;;;;8.50;7.00;;;13.00;90.30;;;;;;4983829;28;20455;-84
2022/11/13 17:10:45;;;;;;;8.93;6.70;;;13.00;90.50;;;;;;4985399;28;20443;-84
2022/11/13 17:13:37;;;;;;;10.63;7.40;;;13.00;90.70;;;;;;5013615;28;20478;-83
2022/11/13 17:16:59;;;;;;;7.53;6.70;;;12.90;90.90;;;;;;4977302;28;20501;-84
2022/11/13 17:20:06;;;;;;;8.90;7.53;;;12.90;91.20;;;;;;4947298;28;20462;-85
2022/11/13 17:23:46;;;;;;;8.20;6.57;;;12.90;91.30;;;;;;4907887;29;20571;-83
2022/11/13 17:26:51;;;;;;;8.27;7.37;;;12.80;91.40;;;;;;4938690;28;20869;-86
2022/11/13 17:34:14;;;;;;;11.13;8.80;;;12.80;91.80;;;;;;4951588;28;20495;-84
2022/11/13 17:37:12;;;;;;;10.10;8.17;;;12.70;91.80;;;;;;4994610;28;20813;-86
2022/11/13 17:44:22;;;;;;;;;;;;;;;;;;;;;
2022/11/13 17:47:40;;;;;;;15.27;10.40;;;12.60;92.60;;;;;;4966662;28;20545;-86
2022/11/13 17:50:55;;;;;;;10.30;8.27;;;12.50;92.80;;;;;;4953704;28;20477;-85
2022/11/13 17:57:17;;;;;;;12.70;10.27;;;12.50;93.90;;;;;;5095558;23;20491;-85
2022/11/13 18:00:46;;;;;;;13.77;9.37;;;12.60;94.20;;;;;;4917802;29;21001;-85
2022/11/13 18:04:47;;;;;;;;;;;;;;;;;;;;;
2022/11/13 18:08:10;;;;;;;;;;;;;;;;;;;;;
2022/11/13 18:15:35;;;;;;;9.30;8.40;;;12.60;98.10;;;;;;4922989;29;20429;-84
2022/11/13 18:19:12;;;;;;;13.00;9.80;;;12.50;98.80;;;;;;4931509;29;20448;-86
2022/11/13 18:22:02;;;;;;;12.97;10.23;;;12.90;99.10;;;;;;4926531;29;20477;-85
2022/11/13 18:25:02;;;;;;;13.53;11.47;;;13.00;98.30;;;;;;4950240;28;20536;-86
2022/11/13 18:28:31;;;;;;;13.13;10.93;;;12.90;98.00;;;;;;5001498;28;21042;-85
2022/11/13 18:35:40;;;;;;;12.53;10.60;;;12.70;98.70;;;;;;4932193;29;20435;-86
2022/11/13 18:39:01;;;;;;;13.13;11.70;;;12.60;99.30;;;;;;4928706;29;20471;-85
2022/11/13 18:42:03;;;;;;;;;;;;;;;;;;;;;
2022/11/13 18:45:19;;;;;;;10.70;9.60;;;12.20;99.90;;;;;;4999843;28;20485;-85
2022/11/13 18:48:15;;;;;;;9.97;8.97;;;12.30;99.70;;;;;;4977016;28;20539;-84
2022/11/13 18:51:53;;;;;;;10.00;8.97;;;12.30;98.90;;;;;;4996218;28;20446;-85
2022/11/13 18:54:51;;;;;;;9.63;8.63;;;12.30;98.30;;;;;;4985440;28;20547;-84
2022/11/13 18:58:12;;;;;;;11.73;9.50;;;12.20;98.00;;;;;;4985749;28;20472;-85
2022/11/13 19:00:57;;;;;;;9.30;8.40;;;12.20;97.70;;;;;;4984876;28;20512;-85
2022/11/13 19:04:04;;;;;;;13.33;9.60;;;12.20;97.70;;;;;;4992433;28;20539;-84
2022/11/13 19:07:10;;;;;;;9.53;8.53;;;12.00;98.00;;;;;;4998351;28;20510;-85
2022/11/13 19:10:15;;;;;;;11.57;8.77;;;12.10;98.10;;;;;;4996869;28;20540;-84
2022/11/13 19:18:28;;;;;;;11.70;10.60;;;11.90;98.20;;;;;;4983521;28;20458;-85
2022/11/13 19:21:33;;;;;;;9.60;8.70;;;11.90;98.70;;;;;;4964294;29;20459;-87
2022/11/13 19:24:40;;;;;;;9.30;8.40;;;11.80;98.90;;;;;;4960130;29;20567;-83
2022/11/13 19:27:57;;;;;;;9.33;8.37;;;12.00;99.00;;;;;;4904052;29;20438;-86
2022/11/13 19:31:15;;;;;;;9.00;8.10;;;12.10;98.80;;;;;;4895909;29;20504;-85
2022/11/13 19:34:44;;;;;;;11.30;9.33;;;11.80;98.80;;;;;;4921363;29;20501;-86
2022/11/13 19:37:47;;;;;;;10.63;8.87;;;11.90;99.10;;;;;;4895564;29;20462;-84
2022/11/13 19:40:54;;;;;;;;;;;;;;;;;;;;;
2022/11/13 19:43:47;;;;;;;8.77;8.00;;;11.80;99.30;;;;;;4911229;29;20481;-84
2022/11/13 19:47:19;;;;;;;9.97;8.90;;;11.70;99.50;;;;;;4894119;29;20450;-86
2022/11/13 19:49:58;;;;;;;9.97;8.97;;;11.60;99.90;;;;;;4907281;29;20458;-85
2022/11/13 19:52:47;;;;;;;9.17;8.20;;;11.50;99.90;;;;;;4913235;29;20513;-85
2022/11/13 19:55:37;;;;;;;9.47;8.47;;;11.40;99.90;;;;;;4908586;29;21029;-85
2022/11/13 19:58:40;;;;;;;9.60;8.60;;;11.30;99.90;;;;;;4896925;29;20457;-83
2022/11/13 20:01:43;;;;;;;8.47;7.67;;;11.30;99.90;;;;;;4910072;29;20477;-84
2022/11/13 20:04:47;;;;;;;11.10;9.27;;;11.30;99.90;;;;;;4946871;28;20491;-86
2022/11/13 20:08:01;;;;;;;;;;;;;;;;;;;;;
2022/11/13 20:11:08;;;;;;;9.10;8.20;;;11.30;99.90;;;;;;4966436;29;20464;-85
2022/11/13 20:14:27;;;;;;;;;;;;;;;;;;;;;
2022/11/13 20:21:43;;;;;;;12.90;9.50;;;11.20;99.90;;;;;;4907115;29;20468;-84
2022/11/13 20:24:35;;;;;;;9.07;8.17;;;11.40;99.90;;;;;;4918865;29;20478;-84
2022/11/13 20:28:07;;;;;;;14.33;10.07;;;11.40;99.90;;;;;;4920011;29;20447;-85
2022/11/13 20:31:23;;;;;;;11.50;9.80;;;11.50;99.90;;;;;;4848180;29;20559;-85
2022/11/13 20:34:18;;;;;;;9.87;8.87;;;11.40;99.70;;;;;;4884183;29;20473;-85
2022/11/13 20:37:28;;;;;;;11.60;9.30;;;11.50;99.70;;;;;;4904962;29;20496;-85
2022/11/13 20:40:58;;;;;;;;;;;;;;;;;;;;;
2022/11/13 20:44:18;;;;;;;;;;;;;;;;;;;;;
2022/11/13 20:47:12;;;;;;;13.27;9.77;;;11.10;99.90;;;;;;4902387;29;20516;-86
2022/11/13 20:50:03;;;;;;;15.23;11.03;;;11.00;99.90;;;;;;4902650;29;20542;-84
2022/11/13 20:52:43;;;;;;;10.93;9.80;;;10.90;99.90;;;;;;4919117;29;20482;-85
2022/11/13 20:55:31;;;;;;;11.70;9.00;;;10.80;99.90;;;;;;4908980;29;20454;-85
2022/11/13 20:58:16;;;;;;;11.03;8.80;;;10.90;99.90;;;;;;4962117;29;20464;-85
2022/11/13 21:01:08;;;;;;;12.07;9.63;;;11.10;99.90;;;;;;4972114;28;20543;-85
2022/11/13 21:04:09;;;;;;;10.60;9.23;;;11.10;99.90;;;;;;4947764;29;20483;-84
2022/11/13 21:10:26;;;;;;;10.47;8.53;;;11.30;99.10;;;;;;4961769;29;20455;-85
2022/11/13 21:14:00;;;;;;;;;;;;;;;;;;;;;
2022/11/13 21:17:44;;;;;;;;;;;;;;;;;;;;;
2022/11/13 21:35:30;;;;;;;9.40;8.40;;;10.60;99.90;;;;;;4997457;28;20569;-86
2022/11/13 21:39:21;;;;;;;9.37;8.47;;;10.60;99.70;;;;;;4927291;29;20452;-84
2022/11/13 21:42:35;;;;;;;9.23;7.97;;;10.70;99.30;;;;;;4892335;29;20470;-85
2022/11/13 21:45:51;;;;;;;10.20;8.43;;;10.70;98.90;;;;;;4951462;28;20495;-84
2022/11/13 21:49:14;;;;;;;8.60;7.00;;;10.50;99.00;;;;;;4960942;28;20445;-83
2022/11/13 21:52:26;;;;;;;9.03;7.47;;;10.30;99.30;;;;;;4936585;29;20465;-84
2022/11/13 21:59:25;;;;;;;7.87;7.07;;;10.80;98.80;;;;;;4921362;29;20463;-85
2022/11/13 22:32:35;;;;;;;8.10;6.90;;;10.40;96.90;;;;;;517782;26;20750;-82
2022/11/13 22:35:50;;;;;;;6.83;6.23;;;10.30;96.80;;;;;;4908651;29;20561;-87
2022/11/13 22:39:20;;;;;;;8.57;6.73;;;10.70;96.30;;;;;;4890834;29;20480;-85
2022/11/13 22:42:38;;;;;;;8.53;7.20;;;10.70;95.50;;;;;;4889834;29;20452;-85
2022/11/13 22:46:01;;;;;;;9.23;8.10;;;10.50;96.80;;;;;;4919495;29;20493;-86
2022/11/13 22:48:52;;;;;;;8.70;7.63;;;10.50;97.90;;;;;;4902592;29;20454;-86
2022/11/13 22:52:18;;;;;;;;;;;;;;;;;;;;;
2022/11/13 22:55:46;;;;;;;8.80;7.67;;;10.10;99.10;;;;;;4813022;29;20453;-84
2022/11/13 22:59:02;;;;;;;7.57;6.90;;;10.10;99.60;;;;;;4861008;29;20451;-86
2022/11/13 23:02:04;;;;;;;7.90;6.83;;;10.00;99.60;;;;;;4865796;29;20458;-86
2022/11/13 23:12:10;;;;;;;5.97;5.40;;;10.00;99.30;;;;;;4784365;29;20933;-83
2022/11/13 23:15:39;;;;;;;7.57;5.80;;;9.90;98.80;;;;;;4780730;29;20471;-87
2022/11/13 23:18:24;;;;;;;7.10;5.90;;;9.90;97.20;;;;;;4765529;30;20823;-84
2022/11/13 23:21:36;;;;;;;6.03;5.17;;;10.30;95.20;;;;;;4753434;30;20477;-86